Time;durP1;ratioP1;P1;durP2;ratioP2;P2;SDS_P1;SDS_P2;PMS_P1;PMS_P2;Temp;Humidity;BMP_temperature;BMP_pressure;BME280_temperature;BME280_humidity;BME280_pressure;Samples;Min_cycle;Max_cycle;Signal;HPM_P1;HPM_P2
2022/12/31 00:01:09;;;;;;;0.98;0.70;;;;;;;;;;5077800;28;20208;-68
2022/12/31 00:03:35;;;;;;;1.85;0.52;;;;;;;;;;5077654;28;20208;-68
2022/12/31 00:06:02;;;;;;;0.20;0.20;;;;;;;;;;5077743;28;20212;-68
2022/12/31 00:08:28;;;;;;;2.10;0.63;;;;;;;;;;5077339;28;20208;-67
2022/12/31 00:10:54;;;;;;;0.45;0.30;;;;;;;;;;5077703;28;20208;-67
2022/12/31 00:13:22;;;;;;;0.30;0.30;;;;;;;;;;5077242;28;20208;-67
2022/12/31 00:15:48;;;;;;;0.47;0.47;;;;;;;;;;5077465;28;20222;-67
2022/12/31 00:18:15;;;;;;;0.30;0.30;;;;;;;;;;5077627;28;20228;-68
2022/12/31 00:20:41;;;;;;;0.32;0.32;;;;;;;;;;5077411;28;20342;-68
2022/12/31 00:23:08;;;;;;;0.30;0.30;;;;;;;;;;5077517;28;20208;-68
2022/12/31 00:25:35;;;;;;;0.20;0.20;;;;;;;;;;5077360;28;20209;-68
2022/12/31 00:28:01;;;;;;;3.72;0.40;;;;;;;;;;5076835;28;20220;-68
2022/12/31 00:30:29;;;;;;;0.80;0.20;;;;;;;;;;5077024;28;20208;-67
2022/12/31 00:32:55;;;;;;;0.90;0.40;;;;;;;;;;5076903;28;20216;-69
2022/12/31 00:35:21;;;;;;;0.40;0.40;;;;;;;;;;5076884;28;20212;-67
2022/12/31 00:37:48;;;;;;;0.88;0.30;;;;;;;;;;5077468;28;20527;-67
2022/12/31 00:40:14;;;;;;;0.65;0.30;;;;;;;;;;5076926;28;20216;-67
2022/12/31 00:42:40;;;;;;;0.75;0.30;;;;;;;;;;5076635;28;20204;-67
2022/12/31 00:45:07;;;;;;;1.10;0.30;;;;;;;;;;5076608;28;20208;-67
2022/12/31 00:47:35;;;;;;;1.38;0.30;;;;;;;;;;5077119;28;20207;-67
2022/12/31 00:50:01;;;;;;;0.30;0.30;;;;;;;;;;5077032;28;20222;-67
2022/12/31 00:52:27;;;;;;;0.77;0.57;;;;;;;;;;5077159;28;20290;-67
2022/12/31 00:54:53;;;;;;;0.77;0.30;;;;;;;;;;5076051;28;20555;-68
2022/12/31 00:57:20;;;;;;;0.22;0.22;;;;;;;;;;5077024;28;20220;-69
2022/12/31 00:59:46;;;;;;;0.30;0.30;;;;;;;;;;5077095;28;20212;-68
2022/12/31 01:02:12;;;;;;;0.40;0.38;;;;;;;;;;5076900;28;20220;-68
2022/12/31 01:04:40;;;;;;;0.30;0.20;;;;;;;;;;5076300;28;20235;-68
2022/12/31 01:07:06;;;;;;;0.20;0.20;;;;;;;;;;5076909;28;20216;-68
2022/12/31 01:09:32;;;;;;;0.32;0.30;;;;;;;;;;5076289;28;20212;-67
2022/12/31 01:11:58;;;;;;;0.90;0.30;;;;;;;;;;5076905;28;20254;-67
2022/12/31 01:14:25;;;;;;;0.40;0.40;;;;;;;;;;5076276;28;20215;-67
2022/12/31 01:16:53;;;;;;;0.40;0.40;;;;;;;;;;5076914;28;20216;-67
2022/12/31 01:19:20;;;;;;;0.52;0.52;;;;;;;;;;5076835;28;20285;-68
2022/12/31 01:21:48;;;;;;;0.30;0.30;;;;;;;;;;5076838;28;20261;-68
2022/12/31 01:24:14;;;;;;;0.30;0.30;;;;;;;;;;5076292;28;20208;-67
2022/12/31 01:26:40;;;;;;;2.33;0.40;;;;;;;;;;5075961;28;20508;-68
2022/12/31 01:29:07;;;;;;;0.75;0.40;;;;;;;;;;5075902;28;20224;-67
2022/12/31 01:31:34;;;;;;;0.32;0.32;;;;;;;;;;5076640;28;20209;-67
2022/12/31 01:34:00;;;;;;;0.50;0.50;;;;;;;;;;5076723;28;20526;-68
2022/12/31 01:36:27;;;;;;;0.30;0.30;;;;;;;;;;5082239;28;20200;-68
2022/12/31 01:38:56;;;;;;;0.95;0.40;;;;;;;;;;5081464;28;20531;-69
2022/12/31 01:41:24;;;;;;;0.25;0.22;;;;;;;;;;5082079;28;20387;-67
2022/12/31 01:43:53;;;;;;;2.45;0.30;;;;;;;;;;5081911;28;20396;-69
2022/12/31 01:46:27;;;;;;;0.40;0.40;;;;;;;;;;5082078;28;20196;-69
2022/12/31 01:48:56;;;;;;;0.43;0.43;;;;;;;;;;5081541;28;20553;-68
2022/12/31 01:51:22;;;;;;;0.55;0.40;;;;;;;;;;5081764;28;20196;-67
2022/12/31 01:53:49;;;;;;;0.38;0.38;;;;;;;;;;5082143;28;20511;-69
2022/12/31 01:56:18;;;;;;;1.10;0.40;;;;;;;;;;5081971;28;20200;-67
2022/12/31 01:58:45;;;;;;;0.30;0.30;;;;;;;;;;5081499;28;20464;-69
2022/12/31 02:01:14;;;;;;;0.30;0.30;;;;;;;;;;5081815;28;20196;-67
2022/12/31 02:03:40;;;;;;;0.30;0.30;;;;;;;;;;5081709;28;20196;-69
2022/12/31 02:06:08;;;;;;;0.30;0.30;;;;;;;;;;5081506;28;20200;-68
2022/12/31 02:08:35;;;;;;;0.52;0.30;;;;;;;;;;5081390;28;20193;-69
2022/12/31 02:11:02;;;;;;;1.55;0.45;;;;;;;;;;5081766;28;20204;-69
2022/12/31 02:13:29;;;;;;;0.45;0.45;;;;;;;;;;5081766;28;20196;-69
2022/12/31 02:15:59;;;;;;;0.30;0.30;;;;;;;;;;5081741;28;20203;-69
2022/12/31 02:18:28;;;;;;;0.40;0.40;;;;;;;;;;5081170;28;20220;-69
2022/12/31 02:21:12;;;;;;;0.30;0.30;;;;;;;;;;5081733;28;20258;-69
2022/12/31 02:23:53;;;;;;;0.55;0.30;;;;;;;;;;5071123;28;20385;-69
2022/12/31 02:26:40;;;;;;;0.30;0.30;;;;;;;;;;5048310;28;20197;-69
2022/12/31 02:29:23;;;;;;;0.98;0.30;;;;;;;;;;5075941;28;20279;-69
2022/12/31 02:31:52;;;;;;;0.40;0.40;;;;;;;;;;5081738;28;20192;-69
2022/12/31 02:34:22;;;;;;;0.57;0.40;;;;;;;;;;5081930;28;20487;-69
2022/12/31 02:36:50;;;;;;;0.40;0.40;;;;;;;;;;5082454;28;20483;-69
2022/12/31 02:39:16;;;;;;;1.45;0.50;;;;;;;;;;5084589;28;20220;-68
2022/12/31 02:41:52;;;;;;;0.40;0.40;;;;;;;;;;5085248;28;20208;-69
2022/12/31 02:44:23;;;;;;;0.40;0.40;;;;;;;;;;5085198;28;20267;-69
2022/12/31 02:46:54;;;;;;;0.85;0.40;;;;;;;;;;5085061;28;20515;-69
2022/12/31 02:49:22;;;;;;;1.77;0.30;;;;;;;;;;5085005;28;20200;-69
2022/12/31 02:51:54;;;;;;;1.85;0.43;;;;;;;;;;5084744;28;20204;-69
2022/12/31 02:54:27;;;;;;;1.00;0.30;;;;;;;;;;5085018;28;20196;-69
2022/12/31 02:56:59;;;;;;;0.50;0.50;;;;;;;;;;5085250;28;20192;-69
2022/12/31 03:02:14;;;;;;;0.30;0.30;;;;;;;;;;5084779;28;20191;-69
2022/12/31 03:04:41;;;;;;;0.60;0.60;;;;;;;;;;5084738;28;20196;-69
2022/12/31 03:07:09;;;;;;;0.40;0.40;;;;;;;;;;5084822;28;20196;-69
2022/12/31 03:09:36;;;;;;;0.40;0.40;;;;;;;;;;5084412;28;20199;-69
2022/12/31 03:14:46;;;;;;;0.32;0.32;;;;;;;;;;5084488;28;20226;-69
2022/12/31 03:17:14;;;;;;;1.38;0.40;;;;;;;;;;5084765;28;20196;-69
2022/12/31 03:22:27;;;;;;;0.40;0.38;;;;;;;;;;5084535;28;20445;-69
2022/12/31 03:27:38;;;;;;;0.80;0.50;;;;;;;;;;5084254;28;20214;-69
2022/12/31 03:30:05;;;;;;;0.30;0.30;;;;;;;;;;5084153;28;20204;-69
2022/12/31 03:32:33;;;;;;;1.30;0.30;;;;;;;;;;5084415;28;20219;-69
2022/12/31 03:34:59;;;;;;;0.50;0.32;;;;;;;;;;5084209;28;20235;-68
2022/12/31 03:37:25;;;;;;;0.75;0.45;;;;;;;;;;5084177;28;20196;-69
2022/12/31 03:39:52;;;;;;;0.50;0.50;;;;;;;;;;5083470;28;20216;-69
2022/12/31 03:42:18;;;;;;;1.25;0.32;;;;;;;;;;5084129;28;20200;-69
2022/12/31 03:44:44;;;;;;;0.43;0.43;;;;;;;;;;5084274;28;20231;-68
2022/12/31 03:47:10;;;;;;;0.55;0.40;;;;;;;;;;5084054;28;20196;-68
2022/12/31 03:49:38;;;;;;;0.98;0.45;;;;;;;;;;5083057;28;20234;-68
2022/12/31 03:52:05;;;;;;;1.67;0.40;;;;;;;;;;5083812;28;20208;-68
2022/12/31 03:54:31;;;;;;;0.30;0.30;;;;;;;;;;5083687;28;20197;-68
2022/12/31 03:56:57;;;;;;;0.80;0.40;;;;;;;;;;5083910;28;20197;-68
2022/12/31 03:59:24;;;;;;;0.28;0.28;;;;;;;;;;5083398;28;20220;-68
2022/12/31 04:01:50;;;;;;;0.75;0.40;;;;;;;;;;5083976;28;20200;-68
2022/12/31 04:04:16;;;;;;;2.72;0.50;;;;;;;;;;5083522;28;20197;-68
2022/12/31 04:06:44;;;;;;;0.65;0.40;;;;;;;;;;5083445;28;20204;-68
2022/12/31 04:09:10;;;;;;;0.30;0.30;;;;;;;;;;5083350;28;20196;-68
2022/12/31 04:11:36;;;;;;;0.35;0.35;;;;;;;;;;5083522;28;20196;-68
2022/12/31 04:14:02;;;;;;;0.30;0.30;;;;;;;;;;5083353;28;20234;-68
2022/12/31 04:16:29;;;;;;;1.45;0.30;;;;;;;;;;5083376;28;20204;-68
2022/12/31 04:18:55;;;;;;;0.32;0.32;;;;;;;;;;5082897;28;20213;-68
2022/12/31 04:21:22;;;;;;;1.33;0.50;;;;;;;;;;5083185;28;20377;-68
2022/12/31 04:23:49;;;;;;;0.40;0.40;;;;;;;;;;5083440;28;20419;-68
2022/12/31 04:26:15;;;;;;;1.77;0.30;;;;;;;;;;5083307;28;20203;-68
2022/12/31 04:28:42;;;;;;;0.20;0.20;;;;;;;;;;5082572;28;20219;-68
2022/12/31 04:31:10;;;;;;;2.28;0.40;;;;;;;;;;5083149;28;20196;-69
2022/12/31 04:33:36;;;;;;;0.88;0.50;;;;;;;;;;5083063;28;20202;-69
2022/12/31 04:36:03;;;;;;;0.30;0.30;;;;;;;;;;5082837;28;20380;-69
2022/12/31 04:38:29;;;;;;;1.65;0.30;;;;;;;;;;5082638;28;20238;-69
2022/12/31 04:43:41;;;;;;;0.93;0.30;;;;;;;;;;5083043;28;20195;-69
2022/12/31 04:46:07;;;;;;;1.65;0.30;;;;;;;;;;5082709;28;20224;-69
2022/12/31 04:48:34;;;;;;;0.30;0.30;;;;;;;;;;5082774;28;20196;-69
2022/12/31 04:51:00;;;;;;;0.50;0.30;;;;;;;;;;5082915;28;20216;-69
2022/12/31 04:53:26;;;;;;;0.30;0.30;;;;;;;;;;5082827;28;20208;-69
2022/12/31 04:55:52;;;;;;;0.38;0.38;;;;;;;;;;5082842;28;20197;-69
2022/12/31 04:58:20;;;;;;;0.25;0.20;;;;;;;;;;5082163;28;20258;-69
2022/12/31 05:00:48;;;;;;;1.08;0.20;;;;;;;;;;5081667;28;20203;-69
2022/12/31 05:03:15;;;;;;;0.63;0.22;;;;;;;;;;5082465;28;20197;-69
2022/12/31 05:05:42;;;;;;;0.32;0.30;;;;;;;;;;5082485;28;20200;-69
2022/12/31 05:08:08;;;;;;;0.30;0.30;;;;;;;;;;5082073;28;20193;-69
2022/12/31 05:10:35;;;;;;;0.40;0.40;;;;;;;;;;5082500;28;20546;-69
2022/12/31 05:13:01;;;;;;;0.20;0.20;;;;;;;;;;5082382;28;20201;-69
2022/12/31 05:15:29;;;;;;;0.22;0.22;;;;;;;;;;5082325;28;20196;-69
2022/12/31 05:17:55;;;;;;;0.20;0.20;;;;;;;;;;5082298;28;20196;-69
2022/12/31 05:20:21;;;;;;;0.20;0.20;;;;;;;;;;5081783;28;20227;-69
2022/12/31 05:22:48;;;;;;;0.95;0.30;;;;;;;;;;5082021;28;20204;-69
2022/12/31 05:25:14;;;;;;;0.25;0.25;;;;;;;;;;5082355;28;20196;-69
2022/12/31 05:27:40;;;;;;;1.65;0.30;;;;;;;;;;5082173;28;20220;-69
2022/12/31 05:30:07;;;;;;;0.30;0.30;;;;;;;;;;5081739;28;20496;-69
2022/12/31 05:32:35;;;;;;;0.20;0.20;;;;;;;;;;5082117;28;20242;-69
2022/12/31 05:35:02;;;;;;;0.30;0.30;;;;;;;;;;5082127;28;20196;-69
2022/12/31 05:37:28;;;;;;;0.22;0.22;;;;;;;;;;5081900;28;20204;-69
2022/12/31 05:39:54;;;;;;;0.57;0.30;;;;;;;;;;5081763;28;20262;-69
2022/12/31 05:42:21;;;;;;;0.40;0.40;;;;;;;;;;5081939;28;20234;-69
2022/12/31 05:44:47;;;;;;;1.63;0.20;;;;;;;;;;5081830;28;20425;-69
2022/12/31 05:47:13;;;;;;;0.40;0.30;;;;;;;;;;5082064;28;20407;-69
2022/12/31 05:49:41;;;;;;;0.30;0.30;;;;;;;;;;5081677;28;20238;-69
2022/12/31 05:52:07;;;;;;;0.28;0.28;;;;;;;;;;5082002;28;20492;-69
2022/12/31 05:54:33;;;;;;;0.30;0.30;;;;;;;;;;5082033;28;20196;-68
2022/12/31 05:57:00;;;;;;;0.32;0.32;;;;;;;;;;5081775;28;20551;-69
2022/12/31 05:59:26;;;;;;;0.30;0.30;;;;;;;;;;5081371;28;20532;-68
2022/12/31 06:01:52;;;;;;;0.30;0.30;;;;;;;;;;5082076;28;20440;-68
2022/12/31 06:04:18;;;;;;;1.48;0.30;;;;;;;;;;5082010;28;20436;-68
2022/12/31 06:06:46;;;;;;;0.55;0.40;;;;;;;;;;5081944;28;20532;-68
2022/12/31 06:09:12;;;;;;;0.73;0.20;;;;;;;;;;5081399;28;20193;-68
2022/12/31 06:11:39;;;;;;;3.97;0.30;;;;;;;;;;5082298;28;20257;-68
2022/12/31 06:14:05;;;;;;;0.52;0.30;;;;;;;;;;5086169;28;20203;-68
2022/12/31 06:16:31;;;;;;;0.45;0.20;;;;;;;;;;5085645;28;20200;-68
2022/12/31 06:18:57;;;;;;;0.30;0.30;;;;;;;;;;5085712;28;20554;-68
2022/12/31 06:21:24;;;;;;;0.25;0.25;;;;;;;;;;5085551;28;20204;-68
2022/12/31 06:23:51;;;;;;;0.38;0.38;;;;;;;;;;5085558;28;20205;-68
2022/12/31 06:26:17;;;;;;;0.30;0.30;;;;;;;;;;5085521;28;20196;-68
2022/12/31 06:28:44;;;;;;;0.20;0.20;;;;;;;;;;5084899;28;20231;-68
2022/12/31 06:31:12;;;;;;;16.45;11.52;;;;;;;;;;5085240;28;20196;-68
2022/12/31 06:33:38;;;;;;;7.53;5.72;;;;;;;;;;5085478;28;20203;-68
2022/12/31 06:36:06;;;;;;;2.10;1.95;;;;;;;;;;5085345;28;20196;-68
2022/12/31 06:38:33;;;;;;;2.80;0.90;;;;;;;;;;5084861;28;20200;-68
2022/12/31 06:41:03;;;;;;;0.50;0.43;;;;;;;;;;5085109;28;20216;-68
2022/12/31 06:43:30;;;;;;;0.75;0.47;;;;;;;;;;5085387;28;20196;-68
2022/12/31 06:45:59;;;;;;;0.20;0.20;;;;;;;;;;5085349;28;20196;-68
2022/12/31 06:48:25;;;;;;;0.52;0.35;;;;;;;;;;5084965;28;20196;-68
2022/12/31 06:50:52;;;;;;;0.50;0.45;;;;;;;;;;5085076;28;20208;-68
2022/12/31 06:53:18;;;;;;;0.38;0.28;;;;;;;;;;5084875;28;20199;-68
2022/12/31 06:55:45;;;;;;;0.32;0.32;;;;;;;;;;5084951;28;20536;-68
2022/12/31 06:58:13;;;;;;;0.38;0.17;;;;;;;;;;5084887;28;20189;-70
2022/12/31 07:00:40;;;;;;;0.63;0.20;;;;;;;;;;5084614;28;20255;-70
2022/12/31 07:03:18;;;;;;;0.63;0.43;;;;;;;;;;5084975;28;20199;-70
2022/12/31 07:05:46;;;;;;;0.20;0.20;;;;;;;;;;5085132;28;20480;-70
2022/12/31 07:08:19;;;;;;;0.30;0.30;;;;;;;;;;5084371;28;20421;-70
2022/12/31 07:10:48;;;;;;;1.45;0.40;;;;;;;;;;5084879;28;20197;-70
2022/12/31 07:13:22;;;;;;;0.25;0.25;;;;;;;;;;5084850;28;20507;-70
2022/12/31 07:15:52;;;;;;;0.57;0.30;;;;;;;;;;5084855;28;20195;-70
2022/12/31 07:18:23;;;;;;;0.20;0.20;;;;;;;;;;5084776;28;20728;-70
2022/12/31 07:20:50;;;;;;;0.82;0.32;;;;;;;;;;5084675;28;20224;-70
2022/12/31 07:23:17;;;;;;;0.52;0.32;;;;;;;;;;5083552;28;20264;-70
2022/12/31 07:25:47;;;;;;;1.15;0.50;;;;;;;;;;5084665;28;20227;-70
2022/12/31 07:28:20;;;;;;;0.30;0.30;;;;;;;;;;5084108;28;20216;-70
2022/12/31 07:30:51;;;;;;;0.65;0.38;;;;;;;;;;5084378;28;20238;-70
2022/12/31 07:33:23;;;;;;;0.30;0.30;;;;;;;;;;5084166;28;20196;-70
2022/12/31 07:35:53;;;;;;;1.08;0.35;;;;;;;;;;5084340;28;20386;-69
2022/12/31 07:38:24;;;;;;;0.38;0.38;;;;;;;;;;5084216;28;20415;-69
2022/12/31 07:41:00;;;;;;;0.60;0.60;;;;;;;;;;5084042;28;20262;-69
2022/12/31 07:43:32;;;;;;;0.52;0.52;;;;;;;;;;5084052;28;20196;-70
2022/12/31 07:46:04;;;;;;;2.92;0.45;;;;;;;;;;5084495;28;20517;-70
2022/12/31 07:48:30;;;;;;;0.77;0.60;;;;;;;;;;5083799;28;20211;-69
2022/12/31 07:50:57;;;;;;;0.95;0.30;;;;;;;;;;5084155;28;20200;-69
2022/12/31 07:53:23;;;;;;;1.13;0.52;;;;;;;;;;5083956;28;20196;-70
2022/12/31 07:55:53;;;;;;;0.47;0.47;;;;;;;;;;5083903;28;20196;-70
2022/12/31 07:58:22;;;;;;;0.40;0.40;;;;;;;;;;5083331;28;20204;-69
2022/12/31 08:00:49;;;;;;;0.30;0.30;;;;;;;;;;5083640;28;20228;-69
2022/12/31 08:03:22;;;;;;;1.33;0.40;;;;;;;;;;5083866;28;20205;-69
2022/12/31 08:05:52;;;;;;;0.40;0.40;;;;;;;;;;5083762;28;20422;-69
2022/12/31 08:08:23;;;;;;;0.55;0.55;;;;;;;;;;5083519;28;20203;-69
2022/12/31 08:10:58;;;;;;;1.10;1.05;;;;;;;;;;5084046;28;20218;-69
2022/12/31 08:13:24;;;;;;;1.63;1.58;;;;;;;;;;5083792;28;20257;-70
2022/12/31 08:15:51;;;;;;;2.15;1.70;;;;;;;;;;5083848;28;20242;-70
2022/12/31 08:18:19;;;;;;;1.27;1.10;;;;;;;;;;5083336;28;20200;-70
2022/12/31 08:20:49;;;;;;;1.85;0.80;;;;;;;;;;5083444;28;20238;-70
2022/12/31 08:23:21;;;;;;;0.52;0.52;;;;;;;;;;5083841;28;20238;-70
2022/12/31 08:25:56;;;;;;;1.42;0.50;;;;;;;;;;5083733;28;20189;-70
2022/12/31 08:28:30;;;;;;;1.80;0.60;;;;;;;;;;5083093;28;20452;-70
2022/12/31 08:31:00;;;;;;;0.65;0.65;;;;;;;;;;5083472;28;20200;-70
2022/12/31 08:33:32;;;;;;;0.70;0.70;;;;;;;;;;5083194;28;20496;-70
2022/12/31 08:36:08;;;;;;;0.70;0.70;;;;;;;;;;5083071;28;20260;-70
2022/12/31 08:38:39;;;;;;;0.70;0.70;;;;;;;;;;5082957;28;20214;-70
2022/12/31 08:41:12;;;;;;;4.65;2.88;;;;;;;;;;5083127;28;20220;-70
2022/12/31 08:43:42;;;;;;;1.77;1.42;;;;;;;;;;5083136;28;20196;-70
2022/12/31 08:46:17;;;;;;;1.45;1.35;;;;;;;;;;5083160;28;20196;-70
2022/12/31 08:48:46;;;;;;;2.42;1.50;;;;;;;;;;5082907;28;20203;-70
2022/12/31 08:51:14;;;;;;;3.95;3.65;;;;;;;;;;5083056;28;20234;-70
2022/12/31 08:53:41;;;;;;;2.25;2.15;;;;;;;;;;5083067;28;20495;-70
2022/12/31 08:56:10;;;;;;;0.70;0.70;;;;;;;;;;5083545;28;20203;-70
2022/12/31 08:58:43;;;;;;;0.88;0.60;;;;;;;;;;5082385;28;20197;-70
2022/12/31 09:01:10;;;;;;;1.05;0.50;;;;;;;;;;5083210;28;20217;-70
2022/12/31 09:03:44;;;;;;;0.50;0.50;;;;;;;;;;5082807;28;20226;-70
2022/12/31 09:06:15;;;;;;;4.80;0.60;;;;;;;;;;5082925;28;20203;-70
2022/12/31 09:08:47;;;;;;;0.70;0.70;;;;;;;;;;5082517;28;20203;-70
2022/12/31 09:11:16;;;;;;;1.73;0.43;;;;;;;;;;5082958;28;20196;-70
2022/12/31 09:13:54;;;;;;;0.77;0.60;;;;;;;;;;5082947;28;20550;-70
2022/12/31 09:16:23;;;;;;;0.88;0.70;;;;;;;;;;5082631;28;20200;-70
2022/12/31 09:18:49;;;;;;;0.93;0.90;;;;;;;;;;5082296;28;20200;-70
2022/12/31 09:21:17;;;;;;;0.50;0.50;;;;;;;;;;5082429;28;20228;-70
2022/12/31 09:23:44;;;;;;;0.50;0.50;;;;;;;;;;5082443;28;20495;-70
2022/12/31 09:26:14;;;;;;;0.52;0.52;;;;;;;;;;5082682;28;20527;-70
2022/12/31 09:28:47;;;;;;;0.82;0.60;;;;;;;;;;5082162;28;20232;-70
2022/12/31 09:31:15;;;;;;;0.60;0.60;;;;;;;;;;5082516;28;20245;-70
2022/12/31 09:33:47;;;;;;;0.68;0.55;;;;;;;;;;5082515;28;20196;-70
2022/12/31 09:36:16;;;;;;;0.40;0.40;;;;;;;;;;5082444;28;20388;-70
2022/12/31 09:38:47;;;;;;;0.88;0.50;;;;;;;;;;5082233;28;20204;-70
2022/12/31 09:41:14;;;;;;;0.60;0.60;;;;;;;;;;5082303;28;20228;-70
2022/12/31 09:43:55;;;;;;;0.50;0.50;;;;;;;;;;5082340;28;20200;-70
2022/12/31 09:46:34;;;;;;;1.50;0.52;;;;;;;;;;5081762;28;20375;-70
2022/12/31 09:49:18;;;;;;;0.70;0.65;;;;;;;;;;5082159;28;20203;-70
2022/12/31 09:51:47;;;;;;;0.57;0.57;;;;;;;;;;5082120;28;20238;-70
2022/12/31 09:54:28;;;;;;;0.43;0.43;;;;;;;;;;5082231;28;20196;-70
2022/12/31 09:57:04;;;;;;;0.40;0.40;;;;;;;;;;5082153;28;20450;-70
2022/12/31 09:59:36;;;;;;;0.40;0.40;;;;;;;;;;5081768;28;20199;-70
2022/12/31 10:02:14;;;;;;;0.70;0.50;;;;;;;;;;5082299;28;20546;-70
2022/12/31 10:04:56;;;;;;;1.85;0.50;;;;;;;;;;5082105;28;20241;-70
2022/12/31 10:07:32;;;;;;;1.05;0.40;;;;;;;;;;5082055;28;20204;-70
2022/12/31 10:10:06;;;;;;;2.25;1.70;;;;;;;;;;5081903;28;20242;-71
2022/12/31 10:12:53;;;;;;;0.80;0.80;;;;;;;;;;5082027;28;20197;-60
2022/12/31 10:15:49;;;;;;;1.70;1.70;;;;;;;;;;5076793;28;20518;-61
2022/12/31 10:18:23;;;;;;;1.02;0.90;;;;;;;;;;5019730;28;20576;-61
2022/12/31 10:21:00;;;;;;;0.80;0.60;;;;;;;;;;5070404;28;20346;-61
2022/12/31 10:23:37;;;;;;;1.73;0.50;;;;;;;;;;5078172;28;20202;-59
2022/12/31 10:26:15;;;;;;;0.57;0.57;;;;;;;;;;5067060;28;20236;-59
2022/12/31 10:28:48;;;;;;;0.45;0.45;;;;;;;;;;5068073;28;20225;-59
2022/12/31 10:31:31;;;;;;;0.35;0.35;;;;;;;;;;5074151;28;20213;-59
2022/12/31 10:34:06;;;;;;;0.60;0.60;;;;;;;;;;5075898;28;20216;-59
2022/12/31 10:36:45;;;;;;;0.80;0.60;;;;;;;;;;5075378;28;20257;-59
2022/12/31 10:39:18;;;;;;;0.47;0.47;;;;;;;;;;5075709;28;20200;-59
2022/12/31 10:42:04;;;;;;;0.50;0.50;;;;;;;;;;5076080;28;20239;-59
2022/12/31 10:44:48;;;;;;;1.40;0.47;;;;;;;;;;5075740;28;20496;-59
2022/12/31 10:47:28;;;;;;;0.57;0.50;;;;;;;;;;5076204;28;20224;-59
2022/12/31 10:50:09;;;;;;;0.60;0.60;;;;;;;;;;5075686;28;20212;-59
2022/12/31 10:52:58;;;;;;;1.23;1.15;;;;;;;;;;5073620;28;20212;-59
2022/12/31 10:55:41;;;;;;;3.13;0.80;;;;;;;;;;5076260;28;20239;-61
2022/12/31 10:58:25;;;;;;;0.50;0.50;;;;;;;;;;5071005;28;20577;-61
2022/12/31 11:00:57;;;;;;;1.20;0.45;;;;;;;;;;5071885;28;20232;-60
2022/12/31 11:03:48;;;;;;;1.50;0.40;;;;;;;;;;5082755;28;20204;-61
2022/12/31 11:06:41;;;;;;;1.95;0.50;;;;;;;;;;5082611;28;20212;-61
2022/12/31 11:09:26;;;;;;;0.40;0.40;;;;;;;;;;5062030;28;20215;-58
2022/12/31 11:11:55;;;;;;;1.30;0.50;;;;;;;;;;5073583;28;20204;-58
2022/12/31 11:14:32;;;;;;;0.40;0.40;;;;;;;;;;5082554;28;20496;-59
2022/12/31 11:17:08;;;;;;;0.47;0.45;;;;;;;;;;5082175;28;20204;-59
2022/12/31 11:19:38;;;;;;;0.57;0.45;;;;;;;;;;5081505;28;20208;-59
2022/12/31 11:22:16;;;;;;;1.45;0.40;;;;;;;;;;5081792;28;20477;-56
2022/12/31 11:24:54;;;;;;;0.40;0.40;;;;;;;;;;5081941;28;20261;-58
2022/12/31 11:27:23;;;;;;;0.60;0.40;;;;;;;;;;5081714;28;20412;-58
2022/12/31 11:29:58;;;;;;;0.60;0.60;;;;;;;;;;5081047;28;20250;-59
2022/12/31 11:32:32;;;;;;;0.60;0.60;;;;;;;;;;5081272;28;20459;-59
2022/12/31 11:35:14;;;;;;;1.10;1.00;;;;;;;;;;5081382;28;20228;-61
2022/12/31 11:37:44;;;;;;;0.50;0.50;;;;;;;;;;5081798;28;20211;-59
2022/12/31 11:40:25;;;;;;;0.80;0.80;;;;;;;;;;5081601;28;20208;-61
2022/12/31 11:42:55;;;;;;;1.27;0.95;;;;;;;;;;5068972;28;20377;-61
2022/12/31 11:45:26;;;;;;;3.45;1.63;;;;;;;;;;5080016;28;20209;-60
2022/12/31 11:47:58;;;;;;;2.05;1.35;;;;;;;;;;5075228;28;20216;-60
2022/12/31 11:50:31;;;;;;;1.98;1.20;;;;;;;;;;5081449;28;20204;-59
2022/12/31 11:53:03;;;;;;;0.50;0.50;;;;;;;;;;5081287;28;20208;-58
2022/12/31 11:55:42;;;;;;;0.88;0.70;;;;;;;;;;5081330;28;20208;-59
2022/12/31 11:58:11;;;;;;;0.47;0.38;;;;;;;;;;5081064;28;20211;-61
2022/12/31 12:00:38;;;;;;;0.40;0.40;;;;;;;;;;5081130;28;20228;-60
2022/12/31 12:03:06;;;;;;;1.00;0.50;;;;;;;;;;5080490;28;20231;-60
2022/12/31 12:05:34;;;;;;;1.83;0.32;;;;;;;;;;5084768;28;20196;-60
2022/12/31 12:08:01;;;;;;;0.88;0.50;;;;;;;;;;5083536;28;20200;-60
2022/12/31 12:10:29;;;;;;;1.02;0.40;;;;;;;;;;5083450;28;20210;-60
2022/12/31 12:12:56;;;;;;;1.55;0.40;;;;;;;;;;5083620;28;20202;-61
2022/12/31 12:15:24;;;;;;;0.52;0.50;;;;;;;;;;5083892;28;20196;-60
2022/12/31 12:17:52;;;;;;;0.43;0.43;;;;;;;;;;5083719;28;20203;-61
2022/12/31 12:20:22;;;;;;;0.50;0.50;;;;;;;;;;5083688;28;20202;-61
2022/12/31 12:22:49;;;;;;;0.85;0.38;;;;;;;;;;5083412;28;20231;-60
2022/12/31 12:25:16;;;;;;;3.42;0.60;;;;;;;;;;5083446;28;20231;-61
2022/12/31 12:27:43;;;;;;;2.65;0.40;;;;;;;;;;5083511;28;20220;-60
2022/12/31 12:30:10;;;;;;;0.60;0.60;;;;;;;;;;5083092;28;20222;-61
2022/12/31 12:32:37;;;;;;;0.40;0.40;;;;;;;;;;5083214;28;20199;-60
2022/12/31 12:35:12;;;;;;;0.70;0.55;;;;;;;;;;5083373;28;20544;-61
2022/12/31 12:37:40;;;;;;;1.10;0.65;;;;;;;;;;5083377;28;20210;-60
2022/12/31 12:40:14;;;;;;;0.52;0.52;;;;;;;;;;5082965;28;20556;-60
2022/12/31 12:42:46;;;;;;;1.25;0.50;;;;;;;;;;5082859;28;20227;-60
2022/12/31 12:45:15;;;;;;;0.93;0.38;;;;;;;;;;5083234;28;20201;-60
2022/12/31 12:47:42;;;;;;;0.70;0.70;;;;;;;;;;5082964;28;20196;-59
2022/12/31 12:50:13;;;;;;;0.60;0.57;;;;;;;;;;5082712;28;20234;-60
2022/12/31 12:52:54;;;;;;;1.48;0.50;;;;;;;;;;5082929;28;20206;-60
2022/12/31 12:55:21;;;;;;;1.25;0.43;;;;;;;;;;5082960;28;20218;-60
2022/12/31 12:57:50;;;;;;;2.10;0.50;;;;;;;;;;5082723;28;20238;-60
2022/12/31 13:00:18;;;;;;;0.65;0.50;;;;;;;;;;5082407;28;20233;-60
2022/12/31 13:03:08;;;;;;;0.68;0.43;;;;;;;;;;5082982;28;20447;-60
2022/12/31 13:05:41;;;;;;;0.47;0.47;;;;;;;;;;5067753;28;20196;-60
2022/12/31 13:08:14;;;;;;;0.50;0.50;;;;;;;;;;5082243;28;20200;-60
2022/12/31 13:10:48;;;;;;;0.47;0.47;;;;;;;;;;5082475;28;20210;-60
2022/12/31 13:13:18;;;;;;;0.50;0.50;;;;;;;;;;5082568;28;20196;-60
2022/12/31 13:15:46;;;;;;;0.40;0.40;;;;;;;;;;5082511;28;20533;-62
2022/12/31 13:18:19;;;;;;;1.42;0.80;;;;;;;;;;5082142;28;20196;-60
2022/12/31 13:20:49;;;;;;;0.40;0.40;;;;;;;;;;5082183;28;20219;-60
2022/12/31 13:23:19;;;;;;;0.70;0.50;;;;;;;;;;5081855;28;20204;-60
2022/12/31 13:25:53;;;;;;;4.20;0.50;;;;;;;;;;5082517;28;20196;-60
2022/12/31 13:28:20;;;;;;;2.17;0.50;;;;;;;;;;5082076;28;20215;-60
2022/12/31 13:30:48;;;;;;;0.75;0.30;;;;;;;;;;5082508;28;20200;-60
2022/12/31 13:33:16;;;;;;;0.35;0.35;;;;;;;;;;5082440;28;20518;-60
2022/12/31 13:35:44;;;;;;;1.58;0.60;;;;;;;;;;5082092;28;20204;-59
2022/12/31 13:38:12;;;;;;;0.60;0.60;;;;;;;;;;5081956;28;20372;-60
2022/12/31 13:40:45;;;;;;;3.90;1.10;;;;;;;;;;5082103;28;20433;-60
2022/12/31 13:43:15;;;;;;;1.42;1.33;;;;;;;;;;5081804;28;20192;-60
2022/12/31 13:45:43;;;;;;;1.83;1.73;;;;;;;;;;5081438;28;20197;-60
2022/12/31 13:48:12;;;;;;;1.30;1.30;;;;;;;;;;5081598;28;20250;-60
2022/12/31 13:50:41;;;;;;;0.50;0.50;;;;;;;;;;5082453;28;20422;-60
2022/12/31 13:53:13;;;;;;;1.95;0.70;;;;;;;;;;5082145;28;20215;-60
2022/12/31 13:55:41;;;;;;;5.63;0.73;;;;;;;;;;5082124;28;20219;-59
2022/12/31 13:58:12;;;;;;;1.20;0.73;;;;;;;;;;5081374;28;20258;-58
2022/12/31 14:00:42;;;;;;;2.00;0.57;;;;;;;;;;5081927;28;20393;-59
2022/12/31 14:03:11;;;;;;;0.85;0.40;;;;;;;;;;5081013;28;20230;-59
2022/12/31 14:05:42;;;;;;;1.00;0.70;;;;;;;;;;5081083;28;20200;-60
2022/12/31 14:08:09;;;;;;;1.70;0.98;;;;;;;;;;5081465;28;20197;-60
2022/12/31 14:10:41;;;;;;;1.40;1.30;;;;;;;;;;5081787;28;20213;-60
2022/12/31 14:13:14;;;;;;;1.30;1.20;;;;;;;;;;5081724;28;20192;-60
2022/12/31 14:15:44;;;;;;;0.80;0.80;;;;;;;;;;5081962;28;20204;-59
2022/12/31 14:18:17;;;;;;;1.20;0.80;;;;;;;;;;5081684;28;20372;-59
2022/12/31 14:20:46;;;;;;;0.82;0.82;;;;;;;;;;5081738;28;20202;-60
2022/12/31 14:23:17;;;;;;;0.90;0.80;;;;;;;;;;5082279;28;20420;-59
2022/12/31 14:25:46;;;;;;;0.70;0.70;;;;;;;;;;5081628;28;20197;-60
2022/12/31 14:28:17;;;;;;;2.88;0.85;;;;;;;;;;5081796;28;20412;-60
2022/12/31 14:30:44;;;;;;;0.60;0.60;;;;;;;;;;5082054;28;20372;-60
2022/12/31 14:33:17;;;;;;;1.00;0.80;;;;;;;;;;5083363;28;20499;-63
2022/12/31 14:35:50;;;;;;;3.72;1.50;;;;;;;;;;5086874;28;20258;-63
2022/12/31 14:38:19;;;;;;;1.50;1.50;;;;;;;;;;5086674;28;20196;-63
2022/12/31 14:40:52;;;;;;;2.63;2.10;;;;;;;;;;5086677;28;20200;-63
2022/12/31 14:43:25;;;;;;;3.53;1.52;;;;;;;;;;5086842;28;20220;-63
2022/12/31 14:45:55;;;;;;;2.88;1.10;;;;;;;;;;5086764;28;20196;-63
2022/12/31 14:48:28;;;;;;;1.10;1.10;;;;;;;;;;5086178;28;20200;-63
2022/12/31 14:50:54;;;;;;;1.52;1.42;;;;;;;;;;5086782;28;20200;-63
2022/12/31 14:53:22;;;;;;;1.23;1.23;;;;;;;;;;5078460;28;20507;-62
2022/12/31 14:55:56;;;;;;;1.20;1.05;;;;;;;;;;5074259;28;20554;-62
2022/12/31 14:58:30;;;;;;;1.17;1.10;;;;;;;;;;5064636;28;20243;-62
2022/12/31 15:00:57;;;;;;;1.33;1.20;;;;;;;;;;5078346;28;20261;-62
2022/12/31 15:03:25;;;;;;;0.93;0.93;;;;;;;;;;5082783;28;20286;-62
2022/12/31 15:05:52;;;;;;;2.25;1.00;;;;;;;;;;5082879;28;20205;-62
2022/12/31 15:08:37;;;;;;;1.02;0.93;;;;;;;;;;5082727;28;20271;-62
2022/12/31 15:11:09;;;;;;;0.90;0.90;;;;;;;;;;5082764;28;20196;-62
2022/12/31 15:13:42;;;;;;;0.90;0.90;;;;;;;;;;5082572;28;20201;-61